createdAt,value
2023-01-09T00:02:14.265Z,9.37
2023-01-09T00:04:42.287Z,9.35
2023-01-09T00:07:10.357Z,9.32
2023-01-09T00:09:38.365Z,9.33
2023-01-09T00:12:06.400Z,9.33
2023-01-09T00:14:34.364Z,9.33
2023-01-09T00:17:02.382Z,9.37
2023-01-09T00:19:30.500Z,9.35
2023-01-09T00:21:58.505Z,9.34
2023-01-09T00:24:26.451Z,9.32
2023-01-09T00:26:54.415Z,9.33
2023-01-09T00:29:22.502Z,9.38
2023-01-09T00:31:50.665Z,9.37
2023-01-09T00:34:18.975Z,9.35
2023-01-09T00:36:47.104Z,9.38
2023-01-09T00:39:15.180Z,9.37
2023-01-09T00:41:50.232Z,9.38
2023-01-09T00:44:24.243Z,9.41
2023-01-09T00:46:58.752Z,9.42
2023-01-09T00:49:31.206Z,9.41
2023-01-09T00:51:59.696Z,9.41
2023-01-09T00:54:29.211Z,9.42
2023-01-09T00:56:58.854Z,9.44
2023-01-09T00:59:28.342Z,9.47
2023-01-09T01:01:56.668Z,9.50
2023-01-09T01:04:43.727Z,9.51
2023-01-09T01:07:30.559Z,9.52
2023-01-09T01:09:58.802Z,9.56
2023-01-09T01:12:27.170Z,9.59
2023-01-09T01:14:55.171Z,9.64
2023-01-09T01:17:23.218Z,9.67
2023-01-09T01:19:51.178Z,9.66
2023-01-09T01:22:19.353Z,9.65
2023-01-09T01:24:47.315Z,9.65
2023-01-09T01:27:15.391Z,9.67
2023-01-09T01:29:43.391Z,9.66
2023-01-09T01:32:12.048Z,9.65
2023-01-09T01:34:40.063Z,9.62
2023-01-09T01:37:08.084Z,9.61
2023-01-09T01:39:36.128Z,9.61
2023-01-09T01:42:05.906Z,9.60
2023-01-09T01:45:05.269Z,9.60
2023-01-09T01:47:33.245Z,9.60
2023-01-09T01:50:08.703Z,9.60
2023-01-09T01:52:37.995Z,9.63
2023-01-09T01:55:08.614Z,9.65
2023-01-09T01:57:40.063Z,9.69
2023-01-09T02:00:08.893Z,9.70
2023-01-09T02:02:37.068Z,9.73
2023-01-09T02:05:06.237Z,9.74
2023-01-09T02:07:35.217Z,9.75
2023-01-09T02:10:03.701Z,9.74
2023-01-09T02:12:31.699Z,9.74
2023-01-09T02:15:14.820Z,9.72
2023-01-09T02:18:07.948Z,9.71
2023-01-09T02:20:57.621Z,9.70
2023-01-09T02:23:44.639Z,9.69
2023-01-09T02:26:40.562Z,9.67
2023-01-09T02:29:30.240Z,9.62
2023-01-09T02:32:10.496Z,9.60
2023-01-09T02:34:47.886Z,9.58
2023-01-09T02:37:35.521Z,9.56
2023-01-09T02:40:17.944Z,9.54
2023-01-09T02:42:47.734Z,9.53
2023-01-09T02:45:16.319Z,9.52
2023-01-09T02:47:46.886Z,9.52
2023-01-09T02:50:20.454Z,9.54
2023-01-09T02:53:35.830Z,9.55
2023-01-09T02:56:31.856Z,9.55
2023-01-09T02:59:12.831Z,9.57
2023-01-09T03:01:52.566Z,9.57
2023-01-09T03:04:32.476Z,9.61
2023-01-09T03:07:11.733Z,9.61
2023-01-09T03:09:42.798Z,9.62
2023-01-09T03:12:19.795Z,9.63
2023-01-09T03:14:51.082Z,9.63
2023-01-09T03:17:32.220Z,9.61
2023-01-09T03:20:03.077Z,9.61
2023-01-09T03:22:31.124Z,9.59
2023-01-09T03:24:59.993Z,9.57
2023-01-09T03:27:28.727Z,9.56
2023-01-09T03:29:56.753Z,9.57
2023-01-09T03:32:24.833Z,9.56
2023-01-09T03:34:52.927Z,9.56
2023-01-09T03:37:21.086Z,9.55
2023-01-09T03:39:49.045Z,9.53
2023-01-09T03:42:17.012Z,9.51
2023-01-09T03:44:45.079Z,9.49
2023-01-09T03:47:13.000Z,9.51
2023-01-09T03:49:41.016Z,9.51
2023-01-09T03:52:09.086Z,9.51
2023-01-09T03:54:37.175Z,9.53
2023-01-09T03:57:05.227Z,9.56
2023-01-09T03:59:33.234Z,9.55
2023-01-09T04:02:03.730Z,9.54
2023-01-09T04:04:32.411Z,9.53
2023-01-09T04:07:00.412Z,9.51
2023-01-09T04:09:28.351Z,9.50
2023-01-09T04:11:56.317Z,9.51
2023-01-09T04:14:24.506Z,9.53
2023-01-09T04:16:52.665Z,9.53
2023-01-09T04:19:20.880Z,9.52
2023-01-09T04:21:48.813Z,9.52
2023-01-09T04:24:16.773Z,9.52
2023-01-09T04:26:44.847Z,9.51
2023-01-09T04:29:12.815Z,9.53
2023-01-09T04:31:40.887Z,9.51
2023-01-09T04:34:08.813Z,9.53
2023-01-09T04:36:36.928Z,9.54
2023-01-09T04:39:04.892Z,9.54
2023-01-09T04:41:51.399Z,9.55
2023-01-09T04:44:21.109Z,9.57
2023-01-09T04:46:49.688Z,9.53
2023-01-09T04:49:17.863Z,9.57
2023-01-09T04:51:46.040Z,9.60
2023-01-09T04:54:14.426Z,9.61
2023-01-09T04:56:42.796Z,9.64
2023-01-09T04:59:10.878Z,9.66
2023-01-09T05:01:39.604Z,9.67
2023-01-09T05:04:08.291Z,9.69
2023-01-09T05:06:36.510Z,9.66
2023-01-09T05:09:04.596Z,9.62
2023-01-09T05:11:32.757Z,9.59
2023-01-09T05:14:00.833Z,9.61
2023-01-09T05:16:29.346Z,9.61
2023-01-09T05:19:00.674Z,9.60
2023-01-09T05:21:28.991Z,9.62
2023-01-09T05:23:56.889Z,9.65
2023-01-09T05:26:25.001Z,9.69
2023-01-09T05:28:56.796Z,9.72
2023-01-09T05:31:27.012Z,9.70
2023-01-09T05:33:56.158Z,9.69
2023-01-09T05:36:24.115Z,9.68
2023-01-09T05:38:52.012Z,9.68
2023-01-09T05:41:19.920Z,9.66
2023-01-09T05:43:47.808Z,9.64
2023-01-09T05:46:15.837Z,9.60
2023-01-09T05:48:44.914Z,9.56
2023-01-09T05:51:12.883Z,9.53
2023-01-09T05:53:40.808Z,9.52
2023-01-09T05:56:10.172Z,9.49
2023-01-09T05:58:39.453Z,9.47
2023-01-09T06:01:08.056Z,9.46
2023-01-09T06:03:35.971Z,9.44
2023-01-09T06:06:03.999Z,9.46
2023-01-09T06:08:31.869Z,9.48
2023-01-09T06:10:59.787Z,9.46
2023-01-09T06:13:27.730Z,9.44
2023-01-09T06:15:55.748Z,9.43
2023-01-09T06:18:23.709Z,9.43
2023-01-09T06:20:51.723Z,9.44
2023-01-09T06:23:19.729Z,9.47
2023-01-09T06:25:47.849Z,9.50
2023-01-09T06:28:15.845Z,9.50
2023-01-09T06:30:43.864Z,9.47
2023-01-09T06:33:11.921Z,9.45
2023-01-09T06:35:39.824Z,9.43
2023-01-09T06:38:07.716Z,9.41
2023-01-09T06:40:35.803Z,9.40
2023-01-09T06:43:04.567Z,9.36
2023-01-09T06:45:32.550Z,9.30
2023-01-09T06:48:00.468Z,9.25
2023-01-09T06:50:28.423Z,9.20
2023-01-09T06:52:56.439Z,9.16
2023-01-09T06:55:26.416Z,9.12
2023-01-09T06:57:54.491Z,9.10
2023-01-09T07:00:22.456Z,9.09
2023-01-09T07:02:50.374Z,9.09
2023-01-09T07:05:18.555Z,9.09
2023-01-09T07:07:46.418Z,9.09
2023-01-09T07:10:15.233Z,9.09
2023-01-09T07:12:43.152Z,9.10
2023-01-09T07:15:11.593Z,9.12
2023-01-09T07:17:39.528Z,9.13
2023-01-09T07:20:08.239Z,9.14
2023-01-09T07:22:36.182Z,9.15
2023-01-09T07:25:04.690Z,9.17
2023-01-09T07:27:32.602Z,9.18
2023-01-09T07:30:00.429Z,9.20
2023-01-09T07:32:28.309Z,9.22
2023-01-09T07:34:56.253Z,9.24
2023-01-09T07:37:24.387Z,9.24
2023-01-09T07:39:53.450Z,9.25
2023-01-09T07:42:21.445Z,9.27
2023-01-09T07:44:49.420Z,9.28
2023-01-09T07:47:17.315Z,9.28
2023-01-09T07:49:45.357Z,9.27
2023-01-09T07:52:13.405Z,9.28
2023-01-09T07:54:41.232Z,9.30
2023-01-09T07:57:09.162Z,9.28
2023-01-09T07:59:37.025Z,9.27
2023-01-09T08:02:05.780Z,9.27
2023-01-09T08:04:33.736Z,9.28
2023-01-09T08:07:03.360Z,9.27
2023-01-09T08:09:31.266Z,9.30
2023-01-09T08:11:59.374Z,9.37
2023-01-09T08:14:27.316Z,9.45
2023-01-09T08:16:55.174Z,9.53
2023-01-09T08:19:24.066Z,9.59
2023-01-09T08:21:51.946Z,9.63
2023-01-09T08:24:19.799Z,9.65
2023-01-09T08:26:47.735Z,9.69
2023-01-09T08:29:15.667Z,9.72
2023-01-09T08:31:43.667Z,9.73
2023-01-09T08:34:11.519Z,9.72
2023-01-09T08:36:39.353Z,9.72
2023-01-09T08:39:07.329Z,9.74
2023-01-09T08:41:53.966Z,9.75
2023-01-09T08:44:40.370Z,9.74
2023-01-09T08:47:08.816Z,9.76
2023-01-09T08:49:38.944Z,9.79
2023-01-09T08:52:07.720Z,9.83
2023-01-09T08:54:39.975Z,9.86
2023-01-09T08:57:08.134Z,9.86
2023-01-09T08:59:36.953Z,9.88
2023-01-09T09:02:04.844Z,9.92
2023-01-09T09:04:32.886Z,9.96
2023-01-09T09:07:00.892Z,9.99
2023-01-09T09:09:28.872Z,10.06
2023-01-09T09:11:56.881Z,10.14
2023-01-09T09:14:43.385Z,10.22
2023-01-09T09:17:11.349Z,10.29
2023-01-09T09:19:39.742Z,10.35
2023-01-09T09:22:07.617Z,10.40
2023-01-09T09:24:35.487Z,10.48
2023-01-09T09:27:04.784Z,10.52
2023-01-09T09:29:32.745Z,10.57
2023-01-09T09:32:01.037Z,10.63
2023-01-09T09:34:29.517Z,10.71
2023-01-09T09:36:57.589Z,10.78
2023-01-09T09:39:25.648Z,10.82
2023-01-09T09:42:30.493Z,10.84
2023-01-09T09:45:16.757Z,10.90
2023-01-09T09:48:06.489Z,10.97
2023-01-09T09:50:53.745Z,11.00
2023-01-09T09:53:37.282Z,11.08
2023-01-09T09:56:06.040Z,11.17
2023-01-09T09:58:42.523Z,11.22
2023-01-09T10:01:17.499Z,11.26
2023-01-09T10:03:59.328Z,11.28
2023-01-09T10:06:42.374Z,11.31
2023-01-09T10:09:19.301Z,11.31
2023-01-09T10:11:51.354Z,11.27
2023-01-09T10:14:24.400Z,11.26
2023-01-09T10:17:07.924Z,11.23
2023-01-09T10:19:41.658Z,11.21
2023-01-09T10:22:17.879Z,11.21
2023-01-09T10:24:56.137Z,11.18
2023-01-09T10:27:58.314Z,11.17
2023-01-09T10:30:37.610Z,11.16
2023-01-09T10:33:11.673Z,11.17
2023-01-09T10:35:48.102Z,11.19
2023-01-09T10:38:23.001Z,11.22
2023-01-09T10:41:16.806Z,11.24
2023-01-09T10:43:49.277Z,11.27
2023-01-09T10:46:38.051Z,11.26
2023-01-09T10:49:12.817Z,11.23
2023-01-09T10:51:49.306Z,11.23
2023-01-09T10:54:21.654Z,11.24
2023-01-09T10:57:13.029Z,11.28
2023-01-09T10:59:42.034Z,11.37
2023-01-09T11:02:30.275Z,11.48
2023-01-09T11:04:59.090Z,11.52
2023-01-09T11:07:37.257Z,11.53
2023-01-09T11:10:09.729Z,11.57
2023-01-09T11:12:39.349Z,11.62
2023-01-09T11:15:20.155Z,11.68
2023-01-09T11:17:50.665Z,11.69
2023-01-09T11:20:26.162Z,11.71
2023-01-09T11:22:56.906Z,11.72
2023-01-09T11:25:28.326Z,11.73
2023-01-09T11:28:06.406Z,11.73
2023-01-09T11:30:51.156Z,11.69
2023-01-09T11:33:43.845Z,11.68
2023-01-09T11:36:15.794Z,11.69
2023-01-09T11:38:56.145Z,11.67
2023-01-09T11:41:38.182Z,11.62
2023-01-09T11:44:06.672Z,11.59
2023-01-09T11:46:40.204Z,11.58
2023-01-09T11:49:32.127Z,11.58
2023-01-09T11:52:33.150Z,11.61
2023-01-09T11:55:13.178Z,11.66
2023-01-09T11:57:44.118Z,11.70
2023-01-09T12:00:56.220Z,11.73
2023-01-09T12:04:25.217Z,11.75
2023-01-09T12:07:31.205Z,11.76
2023-01-09T12:10:37.190Z,11.81
2023-01-09T12:13:50.208Z,11.89
2023-01-09T12:16:41.363Z,11.93
2023-01-09T12:20:10.233Z,11.96
2023-01-09T12:23:15.213Z,12.00
2023-01-09T12:26:12.190Z,12.03
2023-01-09T12:29:19.290Z,12.04
2023-01-09T12:32:19.237Z,12.03
2023-01-09T12:35:22.504Z,12.02
2023-01-09T12:38:23.188Z,12.03
2023-01-09T12:41:33.242Z,12.03
2023-01-09T12:44:37.262Z,12.03
2023-01-09T12:54:51.611Z,12.07
2023-01-09T12:57:19.569Z,12.08
2023-01-09T12:59:54.260Z,12.10
2023-01-09T13:02:44.488Z,12.14
2023-01-09T13:05:27.615Z,12.12
2023-01-09T13:08:24.602Z,12.15
2023-01-09T13:10:56.464Z,12.14
2023-01-09T13:13:42.398Z,12.16
2023-01-09T13:16:23.572Z,12.19
2023-01-09T13:19:03.041Z,12.20
2023-01-09T13:21:31.781Z,12.20
2023-01-09T13:24:12.183Z,12.22
2023-01-09T13:26:52.531Z,12.21
2023-01-09T13:29:26.957Z,12.24
2023-01-09T13:32:10.400Z,12.22
2023-01-09T13:34:39.083Z,12.21
2023-01-09T13:37:22.787Z,12.20
2023-01-09T13:40:30.730Z,12.20
2023-01-09T13:43:04.578Z,12.18
2023-01-09T13:45:35.027Z,12.20
2023-01-09T13:48:09.961Z,12.22
2023-01-09T13:50:39.499Z,12.22
2023-01-09T13:53:19.762Z,12.24
2023-01-09T13:56:03.269Z,12.20
2023-01-09T13:59:02.169Z,12.18
2023-01-09T14:01:35.933Z,12.12
2023-01-09T14:04:14.918Z,12.09
2023-01-09T14:07:03.239Z,12.01
2023-01-09T14:09:37.799Z,11.98
2023-01-09T14:12:07.101Z,12.00
2023-01-09T14:14:35.670Z,12.01
2023-01-09T14:17:17.175Z,11.96
2023-01-09T14:19:45.559Z,11.91
2023-01-09T14:22:29.872Z,11.85
2023-01-09T14:25:06.272Z,11.84
2023-01-09T14:27:59.901Z,11.83
2023-01-09T14:30:28.070Z,11.75
2023-01-09T14:33:18.795Z,11.75
2023-01-09T14:36:00.702Z,11.76
2023-01-09T14:38:29.049Z,11.79
2023-01-09T14:41:54.061Z,11.77
2023-01-09T14:44:53.383Z,11.80
2023-01-09T14:47:24.606Z,11.82
2023-01-09T14:50:04.468Z,11.82
2023-01-09T14:52:39.976Z,11.85
2023-01-09T14:55:21.180Z,11.86
2023-01-09T14:57:52.424Z,11.83
2023-01-09T15:00:22.592Z,11.87
2023-01-09T15:02:52.969Z,11.89
2023-01-09T15:05:25.334Z,11.89
2023-01-09T15:08:01.398Z,11.89
2023-01-09T15:10:32.244Z,11.92
2023-01-09T15:13:03.231Z,11.95
2023-01-09T15:15:31.169Z,11.94
2023-01-09T15:18:02.492Z,11.94
2023-01-09T15:20:33.480Z,11.96
2023-01-09T15:23:01.697Z,11.97
2023-01-09T15:25:38.889Z,11.97
2023-01-09T15:28:32.803Z,12.00
2023-01-09T15:31:23.179Z,11.99
2023-01-09T15:33:53.941Z,11.99
2023-01-09T15:36:26.235Z,12.00
2023-01-09T15:38:55.371Z,12.04
2023-01-09T15:41:47.925Z,12.07
2023-01-09T15:44:26.050Z,12.09
2023-01-09T15:46:59.908Z,12.12
2023-01-09T15:49:28.581Z,12.13
2023-01-09T15:51:57.082Z,12.15
2023-01-09T15:54:31.515Z,12.15
2023-01-09T15:57:24.907Z,12.18
2023-01-09T15:59:54.586Z,12.20
2023-01-09T16:02:43.334Z,12.23
2023-01-09T16:05:17.041Z,12.26
2023-01-09T16:07:51.095Z,12.26
2023-01-09T16:10:36.172Z,12.28
2023-01-09T16:13:04.205Z,12.31
2023-01-09T16:15:34.963Z,12.31
2023-01-09T16:18:18.561Z,12.34
2023-01-09T16:20:49.599Z,12.36
2023-01-09T16:23:31.531Z,12.38
2023-01-09T16:26:19.938Z,12.40
2023-01-09T16:28:47.895Z,12.41
2023-01-09T16:31:20.817Z,12.41
2023-01-09T16:33:54.396Z,12.42
2023-01-09T16:36:22.562Z,12.43
2023-01-09T16:38:50.538Z,12.45
2023-01-09T16:41:40.426Z,12.48
2023-01-09T16:44:10.946Z,12.49
2023-01-09T16:46:43.707Z,12.52
2023-01-09T16:49:19.108Z,12.53
2023-01-09T16:51:48.210Z,12.55
2023-01-09T16:54:16.746Z,12.56
2023-01-09T16:56:49.454Z,12.56
2023-01-09T16:59:26.457Z,12.57
2023-01-09T17:01:55.477Z,12.58
2023-01-09T17:04:26.641Z,12.60
2023-01-09T17:06:55.326Z,12.61
2023-01-09T17:09:27.348Z,12.63
2023-01-09T17:11:55.884Z,12.62
2023-01-09T17:14:24.772Z,12.62
2023-01-09T17:16:52.903Z,12.61
2023-01-09T17:19:21.624Z,12.60
2023-01-09T17:21:49.714Z,12.61
2023-01-09T17:24:36.511Z,12.61
2023-01-09T17:27:23.416Z,12.61
2023-01-09T17:29:51.537Z,12.62
2023-01-09T17:32:19.876Z,12.64
2023-01-09T17:34:47.938Z,12.66
2023-01-09T17:37:19.666Z,12.68
2023-01-09T17:39:47.684Z,12.69
2023-01-09T17:42:15.635Z,12.70
2023-01-09T17:44:43.699Z,12.70
2023-01-09T17:47:15.719Z,12.72
2023-01-09T17:49:44.044Z,12.74
2023-01-09T17:52:12.221Z,12.75
2023-01-09T17:54:40.833Z,12.76
2023-01-09T17:57:16.456Z,12.79
2023-01-09T17:59:45.194Z,12.79
2023-01-09T18:02:19.976Z,12.80
2023-01-09T18:04:48.183Z,12.79
2023-01-09T18:07:18.067Z,12.77
2023-01-09T18:09:46.133Z,12.74
2023-01-09T18:12:14.294Z,12.70
2023-01-09T18:14:42.884Z,12.66
2023-01-09T18:17:13.525Z,12.61
2023-01-09T18:19:41.587Z,12.60
2023-01-09T18:22:09.867Z,12.60
2023-01-09T18:24:38.129Z,12.61
2023-01-09T18:27:06.099Z,12.62
2023-01-09T18:29:34.279Z,12.64
2023-01-09T18:32:02.424Z,12.67
2023-01-09T18:34:30.515Z,12.68
2023-01-09T18:36:58.643Z,12.70
2023-01-09T18:39:26.759Z,12.72
2023-01-09T18:41:54.957Z,12.72
2023-01-09T18:44:23.008Z,12.72
2023-01-09T18:46:51.298Z,12.70
2023-01-09T18:49:19.455Z,12.67
2023-01-09T18:51:47.468Z,12.66
2023-01-09T18:54:15.514Z,12.65
2023-01-09T18:56:43.666Z,12.65
2023-01-09T18:59:12.678Z,12.66
2023-01-09T19:01:40.757Z,12.66
2023-01-09T19:04:08.988Z,12.68
2023-01-09T19:06:37.696Z,12.69
2023-01-09T19:09:06.867Z,12.70
2023-01-09T19:11:34.868Z,12.71
2023-01-09T19:14:03.040Z,12.71
2023-01-09T19:16:31.371Z,12.71
2023-01-09T19:19:01.162Z,12.72
2023-01-09T19:21:30.060Z,12.73
2023-01-09T19:23:59.004Z,12.71
2023-01-09T19:26:28.623Z,12.70
2023-01-09T19:29:00.819Z,12.68
2023-01-09T19:31:29.205Z,12.65
2023-01-09T19:33:58.897Z,12.64
2023-01-09T19:36:28.167Z,12.62
2023-01-09T19:38:58.291Z,12.59
2023-01-09T19:41:26.766Z,12.55
2023-01-09T19:43:55.019Z,12.50
2023-01-09T19:46:24.884Z,12.47
2023-01-09T19:48:53.646Z,12.49
2023-01-09T19:51:22.327Z,12.50
2023-01-09T19:53:53.632Z,12.51
2023-01-09T19:56:23.598Z,12.51
2023-01-09T19:59:09.790Z,12.53
2023-01-09T20:01:39.824Z,12.53
2023-01-09T20:04:13.631Z,12.53
2023-01-09T20:06:44.083Z,12.51
2023-01-09T20:09:14.126Z,12.49
2023-01-09T20:11:44.893Z,12.50
2023-01-09T20:14:15.372Z,12.52
2023-01-09T20:16:43.979Z,12.54
2023-01-09T20:19:13.452Z,12.55
2023-01-09T20:21:42.787Z,12.57
2023-01-09T20:24:16.788Z,12.58
2023-01-09T20:26:46.510Z,12.61
2023-01-09T20:29:14.899Z,12.61
2023-01-09T20:31:42.990Z,12.62
2023-01-09T20:34:14.883Z,12.63
2023-01-09T20:36:43.488Z,12.63
2023-01-09T20:39:12.560Z,12.64
2023-01-09T20:41:40.887Z,12.67
2023-01-09T20:44:13.217Z,12.68
2023-01-09T20:46:43.572Z,12.71
2023-01-09T20:49:13.661Z,12.73
2023-01-09T20:51:58.564Z,12.77
2023-01-09T20:54:26.515Z,12.78
2023-01-09T20:56:54.716Z,12.79
2023-01-09T20:59:23.322Z,12.81
2023-01-09T21:01:51.674Z,12.79
2023-01-09T21:04:20.111Z,12.80
2023-01-09T21:06:50.249Z,12.81
2023-01-09T21:09:19.211Z,12.81
2023-01-09T21:11:47.449Z,12.83
2023-01-09T21:14:15.405Z,12.85
2023-01-09T21:16:53.327Z,12.85
2023-01-09T21:19:23.063Z,12.87
2023-01-09T21:21:53.203Z,12.88
2023-01-09T21:24:21.436Z,12.90
2023-01-09T21:26:49.487Z,12.92
2023-01-09T21:29:17.766Z,12.93
2023-01-09T21:31:46.041Z,12.93
2023-01-09T21:34:15.841Z,12.94
2023-01-09T21:36:45.224Z,12.97
2023-01-09T21:39:13.522Z,12.96
2023-01-09T21:42:00.338Z,12.97
2023-01-09T21:44:47.183Z,12.95
2023-01-09T21:47:15.344Z,12.94
2023-01-09T21:49:44.956Z,12.90
2023-01-09T21:52:14.542Z,12.88
2023-01-09T21:54:42.719Z,12.87
2023-01-09T21:57:11.289Z,12.87
2023-01-09T21:59:39.368Z,12.87
2023-01-09T22:02:11.466Z,12.86
2023-01-09T22:04:40.307Z,12.84
2023-01-09T22:07:10.245Z,12.81
2023-01-09T22:09:39.144Z,12.79
2023-01-09T22:12:07.498Z,12.75
2023-01-09T22:14:35.672Z,12.72
2023-01-09T22:17:03.749Z,12.69
2023-01-09T22:19:32.772Z,12.66
2023-01-09T22:22:02.746Z,12.65
2023-01-09T22:24:30.819Z,12.66
2023-01-09T22:26:58.992Z,12.68
2023-01-09T22:29:26.993Z,12.67
2023-01-09T22:31:54.965Z,12.66
2023-01-09T22:34:23.626Z,12.64
2023-01-09T22:36:51.717Z,12.65
2023-01-09T22:39:20.096Z,12.65
2023-01-09T22:41:52.797Z,12.64
2023-01-09T22:44:21.430Z,12.62
2023-01-09T22:46:49.397Z,12.60
2023-01-09T22:49:17.377Z,12.60
2023-01-09T22:51:45.463Z,12.61
2023-01-09T22:54:13.733Z,12.61
2023-01-09T22:56:41.731Z,12.61
2023-01-09T22:59:09.758Z,12.62
2023-01-09T23:01:37.887Z,12.64
2023-01-09T23:04:06.149Z,12.63
2023-01-09T23:06:34.378Z,12.65
2023-01-09T23:09:02.481Z,12.66
2023-01-09T23:11:50.215Z,12.69
2023-01-09T23:14:18.351Z,12.67
2023-01-09T23:16:46.642Z,12.65
2023-01-09T23:19:16.035Z,12.65
2023-01-09T23:21:45.365Z,12.65
2023-01-09T23:24:16.301Z,12.67
2023-01-09T23:26:44.850Z,12.68
2023-01-09T23:29:16.012Z,12.67
2023-01-09T23:31:44.639Z,12.67
2023-01-09T23:34:18.080Z,12.68
2023-01-09T23:36:49.655Z,12.66
2023-01-09T23:39:18.146Z,12.66
2023-01-09T23:42:05.021Z,12.67
2023-01-09T23:44:33.306Z,12.67
2023-01-09T23:47:01.445Z,12.68
2023-01-09T23:49:29.586Z,12.69
2023-01-09T23:51:58.232Z,12.71
2023-01-09T23:54:26.308Z,12.72
2023-01-09T23:56:56.643Z,12.74
2023-01-09T23:59:24.814Z,12.74
